LGKZ/KZI METAR and TAF weather

Enter ICAO airport designator
Station Type Date Time Source
LGKZ METAR 2019/10/14 11:50 UTC NOAA

LGKZ 141150Z 14004KT 9999 FEW025 SCT070 24/13 Q1023


Station Type Date Time Source
LGKZ Decoded METAR 2019/10/14 11:50 UTC NOAA

Kozani Airport , Greece (LGKZ) 40-18N 021-47E 627M
Oct 14, 2019 - 07:50 AM EDT / 2019.10.14 1150 UTC
Wind: from the SE (140 degrees) at 5 MPH (4 KT):0
Visibility: greater than 7 mile(s):0
Sky conditions: partly cloudy
Temperature: 75 F (24 C)
Dew Point: 55 F (13 C)
Relative Humidity: 50%
Pressure (altimeter): 30.21 in. Hg (1023 hPa)
ob: LGKZ 141150Z 14004KT 9999 FEW025 SCT070 24/13 Q1023
cycle: 12

Station Type Date Time Source
LGKZ TAF UTC NOAA

Error!

Example: see airport list